Terminal Aerodrome Forecast
Issued by NWS

Home | Current Version | Previous Version | Text Only | Print | Product List | Glossary On
Versions: 1 2 3 4 5 6 7 8 9 10 11 12 13 14
390
FTUS42 KMLB 220539
TAFTIX
TAF
KTIX 220539Z 2206/2306 20015KT P6SM FEW080
     FM220800 19008KT P6SM SCT010 BKN035 WS015/22030KT
     FM221300 20016G26KT P6SM SCT015 BKN035
     FM222200 21018G28KT P6SM VCTS BKN035CB
      TEMPO 2223/2301 25020G40KT 2SM +TSRA
     FM230100 21015G22KT P6SM -RA VCTS BKN035CB
      AMD NOT SKED TIL 221200=

USA.gov is the U.S. government's official web portal to all federal, state and local government web resources and services.